Time;durP1;ratioP1;P1;durP2;ratioP2;P2;SDS_P1;SDS_P2;PMS_P1;PMS_P2;Temp;Humidity;BMP_temperature;BMP_pressure;BME280_temperature;BME280_humidity;BME280_pressure;Samples;Min_cycle;Max_cycle;Signal;HPM_P1;HPM_P2
2021/05/07 00:01:08;;;;;;;4.27;3.80;;;;;;;;;;5043818;28;20441;-77
2021/05/07 00:03:36;;;;;;;4.97;4.23;;;;;;;;;;5038623;28;20449;-77
2021/05/07 00:06:04;;;;;;;5.97;3.87;;;;;;;;;;5022142;28;20449;-77
2021/05/07 00:08:31;;;;;;;5.27;4.20;;;;;;;;;;5037603;28;20453;-77
2021/05/07 00:10:59;;;;;;;4.50;3.70;;;;;;;;;;5042774;28;20429;-78
2021/05/07 00:13:27;;;;;;;4.20;3.80;;;;;;;;;;5042927;28;20487;-78
2021/05/07 00:15:54;;;;;;;4.43;3.90;;;;;;;;;;5042919;28;20461;-77
2021/05/07 00:18:21;;;;;;;5.43;3.70;;;;;;;;;;5044087;28;20460;-77
2021/05/07 00:20:48;;;;;;;8.87;4.27;;;;;;;;;;5043887;28;20444;-77
2021/05/07 00:23:14;;;;;;;8.97;3.80;;;;;;;;;;5042418;28;20504;-76
2021/05/07 00:25:41;;;;;;;7.43;3.87;;;;;;;;;;5042224;28;20784;-77
2021/05/07 00:28:08;;;;;;;8.00;3.80;;;;;;;;;;5039803;28;20456;-76
2021/05/07 00:30:37;;;;;;;4.10;3.70;;;;;;;;;;5040843;28;20449;-77
2021/05/07 00:33:04;;;;;;;4.00;3.70;;;;;;;;;;5043008;28;20468;-76
2021/05/07 00:35:31;;;;;;;7.13;4.27;;;;;;;;;;5042437;28;20478;-78
2021/05/07 00:37:58;;;;;;;6.70;4.17;;;;;;;;;;5033379;28;20457;-76
2021/05/07 00:40:25;;;;;;;7.07;3.33;;;;;;;;;;5047249;28;20535;-78
2021/05/07 00:42:52;;;;;;;6.20;3.60;;;;;;;;;;5046900;28;20508;-77
2021/05/07 00:45:19;;;;;;;6.13;3.80;;;;;;;;;;5045404;28;20445;-77
2021/05/07 00:47:48;;;;;;;8.03;4.03;;;;;;;;;;5044310;28;20441;-76
2021/05/07 00:50:17;;;;;;;4.63;4.10;;;;;;;;;;5042458;28;20452;-76
2021/05/07 00:52:43;;;;;;;4.37;3.70;;;;;;;;;;5043625;28;20476;-76
2021/05/07 00:55:11;;;;;;;4.10;3.50;;;;;;;;;;5045414;28;20476;-75
2021/05/07 00:57:38;;;;;;;4.63;3.60;;;;;;;;;;5044354;28;20445;-75
2021/05/07 01:00:06;;;;;;;6.30;4.30;;;;;;;;;;5048718;28;20455;-77
2021/05/07 01:02:34;;;;;;;6.23;4.00;;;;;;;;;;5051844;28;20499;-76
2021/05/07 01:05:02;;;;;;;4.27;3.60;;;;;;;;;;5054538;28;20451;-76
2021/05/07 01:07:28;;;;;;;6.57;3.23;;;;;;;;;;5052602;28;20461;-76
2021/05/07 01:09:56;;;;;;;4.27;3.63;;;;;;;;;;5052872;28;20460;-77
2021/05/07 01:12:22;;;;;;;5.67;4.30;;;;;;;;;;5053233;28;20506;-76
2021/05/07 01:15:03;;;;;;;8.67;4.57;;;;;;;;;;5050883;28;20515;-77
2021/05/07 01:17:30;;;;;;;7.00;3.87;;;;;;;;;;5046343;28;20449;-77
2021/05/07 01:19:57;;;;;;;7.70;4.30;;;;;;;;;;5042496;28;20453;-77
2021/05/07 01:22:25;;;;;;;7.63;4.33;;;;;;;;;;5034455;28;20468;-76
2021/05/07 01:24:52;;;;;;;4.00;3.63;;;;;;;;;;5021666;28;20508;-76
2021/05/07 01:27:18;;;;;;;6.50;4.47;;;;;;;;;;5035390;28;20460;-76
2021/05/07 01:29:45;;;;;;;4.07;3.50;;;;;;;;;;5043185;28;20445;-76
2021/05/07 01:32:12;;;;;;;5.90;3.70;;;;;;;;;;5043274;28;20473;-75
2021/05/07 01:34:39;;;;;;;5.60;3.87;;;;;;;;;;5043314;28;20476;-77
2021/05/07 01:37:05;;;;;;;8.30;4.13;;;;;;;;;;5041339;28;20446;-77
2021/05/07 01:39:33;;;;;;;5.10;3.67;;;;;;;;;;5020308;28;20460;-77
2021/05/07 01:42:00;;;;;;;6.33;4.20;;;;;;;;;;5035565;28;20469;-77
2021/05/07 01:44:29;;;;;;;5.33;3.80;;;;;;;;;;5042642;28;20452;-80
2021/05/07 01:46:56;;;;;;;6.17;3.80;;;;;;;;;;5038230;28;20446;-77
2021/05/07 01:49:22;;;;;;;6.67;4.27;;;;;;;;;;5026535;28;20504;-77
2021/05/07 01:51:49;;;;;;;6.23;4.50;;;;;;;;;;5032117;28;20472;-77
2021/05/07 01:54:16;;;;;;;4.17;3.77;;;;;;;;;;5050210;28;20477;-77
2021/05/07 01:56:43;;;;;;;6.27;4.47;;;;;;;;;;5052655;28;20444;-77
2021/05/07 01:59:10;;;;;;;5.23;4.67;;;;;;;;;;5051882;28;21012;-79
2021/05/07 02:01:37;;;;;;;4.40;4.00;;;;;;;;;;5049622;28;21015;-77
2021/05/07 02:04:04;;;;;;;4.50;4.10;;;;;;;;;;5052418;28;20448;-78
2021/05/07 02:06:31;;;;;;;4.60;4.00;;;;;;;;;;5054156;28;20448;-78
2021/05/07 02:08:57;;;;;;;5.50;4.03;;;;;;;;;;5051545;28;20456;-76
2021/05/07 02:11:24;;;;;;;4.97;3.70;;;;;;;;;;5059769;22;20494;-63
2021/05/07 02:13:51;;;;;;;7.37;4.13;;;;;;;;;;5029866;28;21104;-64
2021/05/07 02:16:18;;;;;;;5.87;3.80;;;;;;;;;;5038421;28;20843;-64
2021/05/07 02:18:45;;;;;;;6.40;4.27;;;;;;;;;;5030112;28;20459;-64
2021/05/07 02:21:11;;;;;;;9.10;4.43;;;;;;;;;;5031242;28;20472;-65
2021/05/07 02:23:38;;;;;;;8.00;5.00;;;;;;;;;;5031047;28;20503;-65
2021/05/07 02:26:05;;;;;;;5.90;3.90;;;;;;;;;;5031222;28;20457;-63
2021/05/07 02:28:31;;;;;;;6.90;4.50;;;;;;;;;;5031098;28;20599;-65
2021/05/07 02:30:59;;;;;;;5.77;4.00;;;;;;;;;;5030740;28;20464;-65
2021/05/07 02:33:25;;;;;;;8.80;4.80;;;;;;;;;;5027104;28;20445;-64
2021/05/07 02:35:52;;;;;;;7.70;4.30;;;;;;;;;;5030961;28;20818;-65
2021/05/07 02:38:19;;;;;;;6.13;4.70;;;;;;;;;;5030561;28;20453;-65
2021/05/07 02:40:45;;;;;;;8.87;4.57;;;;;;;;;;5030830;28;20983;-65
2021/05/07 02:43:12;;;;;;;8.77;4.30;;;;;;;;;;5030904;28;20451;-64
2021/05/07 02:45:38;;;;;;;4.53;4.10;;;;;;;;;;5030842;28;20460;-64
2021/05/07 02:48:06;;;;;;;5.43;4.10;;;;;;;;;;5025110;28;20846;-64
2021/05/07 02:50:33;;;;;;;9.23;4.50;;;;;;;;;;5019836;28;20491;-64
2021/05/07 02:53:00;;;;;;;6.83;3.80;;;;;;;;;;5030430;28;20469;-64
2021/05/07 02:55:26;;;;;;;5.13;3.87;;;;;;;;;;5030698;28;20490;-64
2021/05/07 02:57:53;;;;;;;6.00;3.93;;;;;;;;;;5030801;28;20449;-63
2021/05/07 03:00:21;;;;;;;6.87;4.67;;;;;;;;;;5030990;28;20444;-64
2021/05/07 03:02:48;;;;;;;5.37;4.20;;;;;;;;;;5026823;28;20510;-64
2021/05/07 03:05:16;;;;;;;5.00;4.47;;;;;;;;;;5030648;28;20880;-65
2021/05/07 03:07:42;;;;;;;5.03;3.90;;;;;;;;;;5030753;28;20462;-64
2021/05/07 03:10:10;;;;;;;5.63;4.90;;;;;;;;;;5030719;28;20910;-65
2021/05/07 03:12:36;;;;;;;5.33;3.90;;;;;;;;;;5030522;28;20485;-64
2021/05/07 03:15:03;;;;;;;5.57;3.93;;;;;;;;;;5030684;28;20484;-64
2021/05/07 03:17:30;;;;;;;5.40;4.53;;;;;;;;;;5022267;28;20449;-64
2021/05/07 03:19:57;;;;;;;5.93;4.23;;;;;;;;;;5030469;28;20456;-64
2021/05/07 03:22:24;;;;;;;8.53;4.17;;;;;;;;;;5031088;28;20471;-63
2021/05/07 03:24:51;;;;;;;6.53;4.47;;;;;;;;;;5030511;28;20936;-65
2021/05/07 03:27:19;;;;;;;7.10;3.80;;;;;;;;;;5033124;28;20518;-64
2021/05/07 03:29:46;;;;;;;8.07;4.67;;;;;;;;;;5033861;28;20456;-64
2021/05/07 03:32:12;;;;;;;7.10;4.33;;;;;;;;;;5027113;28;20507;-64
2021/05/07 03:34:39;;;;;;;6.17;4.30;;;;;;;;;;5033992;28;20480;-65
2021/05/07 03:37:06;;;;;;;10.80;4.40;;;;;;;;;;5033678;28;20576;-65
2021/05/07 03:39:33;;;;;;;6.70;5.00;;;;;;;;;;5034030;28;20910;-65
2021/05/07 03:42:00;;;;;;;6.07;5.07;;;;;;;;;;5033174;28;20867;-65
2021/05/07 03:44:26;;;;;;;4.93;4.33;;;;;;;;;;5034372;28;20448;-64
2021/05/07 03:46:53;;;;;;;5.97;5.37;;;;;;;;;;5022804;28;20541;-64
2021/05/07 03:49:19;;;;;;;5.10;4.57;;;;;;;;;;5014390;28;20445;-65
2021/05/07 03:51:46;;;;;;;5.77;4.40;;;;;;;;;;5032156;28;20476;-64
2021/05/07 03:54:13;;;;;;;6.43;4.30;;;;;;;;;;5033313;28;20485;-65
2021/05/07 03:56:40;;;;;;;4.47;4.07;;;;;;;;;;5033545;28;20455;-65
2021/05/07 03:59:07;;;;;;;4.10;3.80;;;;;;;;;;5033021;28;20451;-65
2021/05/07 04:01:33;;;;;;;6.70;4.17;;;;;;;;;;5024470;28;20470;-65
2021/05/07 04:04:01;;;;;;;5.00;4.50;;;;;;;;;;5014189;28;20446;-65
2021/05/07 04:06:28;;;;;;;5.07;4.63;;;;;;;;;;5032328;28;20456;-65
2021/05/07 04:09:01;;;;;;;6.10;5.33;;;;;;;;;;5033815;28;20445;-65
2021/05/07 04:11:31;;;;;;;6.30;5.80;;;;;;;;;;5032477;28;20481;-66
2021/05/07 04:13:59;;;;;;;6.27;5.27;;;;;;;;;;5033657;28;20571;-64
2021/05/07 04:16:25;;;;;;;5.27;4.87;;;;;;;;;;5026317;28;20453;-64
2021/05/07 04:18:54;;;;;;;5.90;5.30;;;;;;;;;;5018244;28;20499;-66
2021/05/07 04:21:21;;;;;;;7.90;5.77;;;;;;;;;;5032991;28;20473;-65
2021/05/07 04:23:47;;;;;;;6.20;5.43;;;;;;;;;;5032520;28;20452;-66
2021/05/07 04:26:14;;;;;;;9.03;5.50;;;;;;;;;;5032319;28;20453;-66
2021/05/07 04:28:41;;;;;;;5.60;5.20;;;;;;;;;;5033348;28;20510;-66
2021/05/07 04:31:08;;;;;;;5.40;4.90;;;;;;;;;;5031179;28;20468;-65
2021/05/07 04:33:35;;;;;;;5.00;4.70;;;;;;;;;;5032651;28;20448;-65
2021/05/07 04:36:02;;;;;;;5.77;5.17;;;;;;;;;;5032779;28;20453;-65
2021/05/07 04:38:28;;;;;;;5.03;4.63;;;;;;;;;;5032813;28;20460;-65
2021/05/07 04:40:55;;;;;;;5.57;4.77;;;;;;;;;;5032558;28;21015;-65
2021/05/07 04:43:21;;;;;;;5.37;4.93;;;;;;;;;;5032209;28;20459;-65
2021/05/07 04:45:48;;;;;;;4.37;4.07;;;;;;;;;;5032035;28;20535;-65
2021/05/07 04:48:16;;;;;;;8.37;5.03;;;;;;;;;;5032502;28;20456;-66
2021/05/07 04:50:43;;;;;;;6.43;5.43;;;;;;;;;;5029565;28;20476;-65
2021/05/07 04:53:09;;;;;;;6.27;5.77;;;;;;;;;;5021886;28;20530;-65
2021/05/07 04:55:36;;;;;;;7.10;5.50;;;;;;;;;;5029958;28;20545;-64
2021/05/07 04:58:03;;;;;;;6.70;6.10;;;;;;;;;;5032009;28;20535;-68
2021/05/07 05:00:29;;;;;;;5.50;3.70;;;;;;;;;;5030514;28;20809;-67
2021/05/07 05:02:56;;;;;;;4.10;3.67;;;;;;;;;;5031710;28;20967;-67
2021/05/07 05:05:24;;;;;;;2.43;2.20;;;;;;;;;;5022955;28;20469;-69
2021/05/07 05:07:52;;;;;;;3.07;2.60;;;;;;;;;;5032630;28;20452;-68
2021/05/07 05:10:19;;;;;;;7.60;2.07;;;;;;;;;;5031885;28;20467;-67
2021/05/07 05:12:45;;;;;;;10.70;2.60;;;;;;;;;;5032443;28;20481;-67
2021/05/07 05:15:12;;;;;;;4.30;2.60;;;;;;;;;;5031558;28;20485;-67
2021/05/07 05:17:39;;;;;;;2.90;2.67;;;;;;;;;;5028185;28;20518;-67
2021/05/07 05:20:07;;;;;;;2.70;2.27;;;;;;;;;;5030425;28;20464;-68
2021/05/07 05:22:34;;;;;;;2.40;1.80;;;;;;;;;;5032473;28;20469;-67
2021/05/07 05:25:04;;;;;;;4.10;1.73;;;;;;;;;;5031414;28;20455;-68
2021/05/07 05:27:31;;;;;;;2.70;1.50;;;;;;;;;;5031548;28;20456;-67
2021/05/07 05:29:57;;;;;;;2.10;1.30;;;;;;;;;;5031904;28;20944;-67
2021/05/07 05:32:24;;;;;;;1.97;1.40;;;;;;;;;;5031176;28;20472;-67
2021/05/07 05:34:51;;;;;;;2.10;1.20;;;;;;;;;;5023421;28;20487;-67
2021/05/07 05:37:18;;;;;;;2.60;1.23;;;;;;;;;;5022139;28;20448;-66
2021/05/07 05:39:45;;;;;;;3.57;1.40;;;;;;;;;;5032292;28;20453;-67
2021/05/07 05:42:12;;;;;;;3.43;0.93;;;;;;;;;;5031172;28;20470;-68
2021/05/07 05:44:39;;;;;;;2.67;1.23;;;;;;;;;;5031945;28;20948;-68
2021/05/07 05:47:05;;;;;;;2.37;1.23;;;;;;;;;;5031353;28;20456;-67
2021/05/07 05:49:32;;;;;;;2.53;2.33;;;;;;;;;;5024005;28;20453;-67
2021/05/07 05:51:58;;;;;;;4.50;4.10;;;;;;;;;;5023547;28;20472;-66
2021/05/07 05:54:25;;;;;;;9.90;5.30;;;;;;;;;;5031801;28;20491;-66
2021/05/07 05:56:53;;;;;;;6.60;6.10;;;;;;;;;;5031701;28;20457;-65
2021/05/07 05:59:19;;;;;;;5.70;5.30;;;;;;;;;;5032046;28;20448;-65
2021/05/07 06:01:46;;;;;;;7.07;6.30;;;;;;;;;;5031069;28;20468;-66
2021/05/07 06:04:12;;;;;;;6.73;6.23;;;;;;;;;;5031378;28;20445;-67
2021/05/07 06:06:39;;;;;;;5.70;5.20;;;;;;;;;;5030875;28;20535;-64
2021/05/07 06:09:06;;;;;;;5.83;5.33;;;;;;;;;;5031944;28;20545;-65
2021/05/07 06:11:32;;;;;;;6.13;5.00;;;;;;;;;;5029913;28;20489;-65
2021/05/07 06:14:00;;;;;;;6.43;5.83;;;;;;;;;;5031816;28;20491;-66
2021/05/07 06:16:27;;;;;;;5.37;4.87;;;;;;;;;;5030304;28;20461;-65
2021/05/07 06:18:54;;;;;;;5.10;4.70;;;;;;;;;;5025515;28;20444;-65
2021/05/07 06:21:21;;;;;;;4.57;4.17;;;;;;;;;;5030044;28;20500;-65
2021/05/07 06:23:48;;;;;;;5.20;4.80;;;;;;;;;;5029103;28;20819;-65
2021/05/07 06:26:14;;;;;;;4.67;4.27;;;;;;;;;;5030467;28;20514;-65
2021/05/07 06:28:41;;;;;;;4.67;4.27;;;;;;;;;;5031327;28;20482;-65
2021/05/07 06:31:08;;;;;;;4.73;4.17;;;;;;;;;;5031264;28;20464;-64
2021/05/07 06:33:35;;;;;;;4.90;4.27;;;;;;;;;;5030566;28;20460;-65
2021/05/07 06:36:02;;;;;;;5.13;4.73;;;;;;;;;;5030407;28;20810;-65
2021/05/07 06:38:28;;;;;;;4.40;4.10;;;;;;;;;;5030879;28;20461;-64
2021/05/07 06:40:55;;;;;;;4.17;3.77;;;;;;;;;;5030796;28;20464;-65
2021/05/07 06:43:21;;;;;;;4.47;4.07;;;;;;;;;;5030741;28;20449;-64
2021/05/07 06:45:48;;;;;;;4.23;3.93;;;;;;;;;;5031133;28;20866;-63
2021/05/07 06:48:16;;;;;;;4.40;4.10;;;;;;;;;;5030319;28;20514;-65
2021/05/07 06:50:42;;;;;;;5.07;4.20;;;;;;;;;;5031216;28;20449;-65
2021/05/07 06:53:09;;;;;;;3.93;3.63;;;;;;;;;;5027745;28;20459;-64
2021/05/07 06:55:35;;;;;;;4.00;3.70;;;;;;;;;;5030609;28;20622;-67
2021/05/07 06:58:02;;;;;;;5.70;4.40;;;;;;;;;;5030477;28;20790;-64
2021/05/07 07:00:29;;;;;;;4.47;4.07;;;;;;;;;;5031425;28;20449;-64
2021/05/07 07:02:55;;;;;;;5.07;4.57;;;;;;;;;;5034618;28;20456;-66
2021/05/07 07:05:23;;;;;;;5.20;4.73;;;;;;;;;;5034340;28;20944;-65
2021/05/07 07:07:49;;;;;;;5.60;5.10;;;;;;;;;;5034252;28;20947;-65
2021/05/07 07:10:16;;;;;;;5.17;4.67;;;;;;;;;;5034476;28;20464;-65
2021/05/07 07:12:43;;;;;;;5.33;4.83;;;;;;;;;;5032347;28;20488;-63
2021/05/07 07:15:10;;;;;;;5.57;5.07;;;;;;;;;;5029140;28;20506;-65
2021/05/07 07:17:37;;;;;;;5.27;4.87;;;;;;;;;;5034228;28;20951;-67
2021/05/07 07:20:04;;;;;;;5.60;5.10;;;;;;;;;;5033807;28;20856;-65
2021/05/07 07:22:32;;;;;;;5.73;5.30;;;;;;;;;;5039481;28;20500;-65
2021/05/07 07:24:58;;;;;;;5.70;5.10;;;;;;;;;;5034462;28;20970;-67
2021/05/07 07:27:25;;;;;;;5.67;5.10;;;;;;;;;;5032263;28;20449;-66
2021/05/07 07:29:52;;;;;;;2.80;2.27;;;;;;;;;;5034259;28;20448;-64
2021/05/07 07:32:19;;;;;;;4.37;1.87;;;;;;;;;;5032524;28;20479;-65
2021/05/07 07:34:46;;;;;;;4.67;1.60;;;;;;;;;;5016351;28;20477;-65
2021/05/07 07:37:13;;;;;;;2.30;1.40;;;;;;;;;;5030147;28;21007;-65
2021/05/07 07:39:41;;;;;;;7.10;1.83;;;;;;;;;;5034542;28;20471;-65
2021/05/07 07:42:08;;;;;;;4.40;1.40;;;;;;;;;;5032416;28;20476;-65
2021/05/07 07:44:34;;;;;;;4.50;1.63;;;;;;;;;;5025947;28;20974;-66
2021/05/07 07:47:01;;;;;;;8.27;2.03;;;;;;;;;;5033844;28;20440;-65
2021/05/07 07:49:28;;;;;;;5.53;1.90;;;;;;;;;;5034222;28;20456;-65
2021/05/07 07:51:58;;;;;;;6.93;2.10;;;;;;;;;;5033668;28;20515;-65
2021/05/07 07:54:24;;;;;;;3.77;1.33;;;;;;;;;;5033949;28;20476;-65
2021/05/07 07:56:52;;;;;;;4.00;1.30;;;;;;;;;;5032546;28;20857;-65
2021/05/07 07:59:19;;;;;;;7.60;2.20;;;;;;;;;;5032668;28;20509;-65
2021/05/07 08:01:45;;;;;;;8.17;2.23;;;;;;;;;;5032018;28;20476;-65
2021/05/07 08:04:16;;;;;;;4.00;1.30;;;;;;;;;;5033590;28;20448;-64
2021/05/07 08:06:43;;;;;;;4.47;1.63;;;;;;;;;;5032009;28;20453;-65
2021/05/07 08:09:09;;;;;;;9.47;3.50;;;;;;;;;;5025176;28;20445;-65
2021/05/07 08:11:36;;;;;;;13.07;4.33;;;;;;;;;;5049427;22;20509;-63
2021/05/07 08:14:03;;;;;;;11.80;3.33;;;;;;;;;;5019990;28;20473;-65
2021/05/07 08:16:30;;;;;;;7.70;2.73;;;;;;;;;;5025294;28;20955;-65
2021/05/07 08:18:57;;;;;;;5.90;2.07;;;;;;;;;;5031306;28;20450;-64
2021/05/07 08:21:24;;;;;;;1.93;1.30;;;;;;;;;;5020891;28;20538;-64
2021/05/07 08:23:52;;;;;;;3.80;1.60;;;;;;;;;;5020807;28;20460;-64
2021/05/07 08:26:19;;;;;;;2.90;1.40;;;;;;;;;;5010970;28;20462;-64
2021/05/07 08:28:46;;;;;;;4.80;1.70;;;;;;;;;;5008363;28;20458;-65
2021/05/07 08:31:14;;;;;;;2.73;1.53;;;;;;;;;;5013457;28;20453;-66
2021/05/07 08:33:40;;;;;;;2.93;2.57;;;;;;;;;;5012820;28;20507;-67
2021/05/07 08:36:07;;;;;;;4.40;2.30;;;;;;;;;;5013171;28;20511;-64
2021/05/07 08:38:33;;;;;;;2.50;2.20;;;;;;;;;;5014220;28;20526;-65
2021/05/07 08:41:02;;;;;;;2.53;1.97;;;;;;;;;;5016395;28;20457;-65
2021/05/07 08:43:28;;;;;;;2.10;1.90;;;;;;;;;;5014487;28;20457;-65
2021/05/07 08:45:55;;;;;;;2.00;1.80;;;;;;;;;;5015461;28;20831;-64
2021/05/07 08:48:24;;;;;;;2.13;1.80;;;;;;;;;;5015505;28;20460;-64
2021/05/07 08:50:51;;;;;;;2.00;1.80;;;;;;;;;;5015195;28;20972;-65
2021/05/07 08:53:18;;;;;;;1.70;1.60;;;;;;;;;;5015834;28;20842;-64
2021/05/07 08:55:44;;;;;;;2.00;1.90;;;;;;;;;;5014472;28;21004;-64
2021/05/07 08:58:11;;;;;;;2.67;2.20;;;;;;;;;;5013125;28;20441;-64
2021/05/07 09:00:38;;;;;;;2.50;2.00;;;;;;;;;;5027128;28;20467;-64
2021/05/07 09:03:05;;;;;;;1.80;1.40;;;;;;;;;;5033045;28;20477;-64
2021/05/07 09:05:33;;;;;;;4.43;1.70;;;;;;;;;;5033135;28;20449;-64
2021/05/07 09:08:00;;;;;;;3.03;1.80;;;;;;;;;;5032892;28;20461;-64
2021/05/07 09:10:33;;;;;;;2.87;1.57;;;;;;;;;;5033001;28;20518;-64
2021/05/07 09:13:00;;;;;;;2.40;1.70;;;;;;;;;;5032303;28;20480;-65
2021/05/07 09:15:37;;;;;;;2.03;1.70;;;;;;;;;;5031562;28;20484;-64
2021/05/07 09:18:04;;;;;;;1.50;1.33;;;;;;;;;;5033026;28;20433;-65
2021/05/07 09:20:36;;;;;;;3.40;1.70;;;;;;;;;;5032097;28;20943;-65
2021/05/07 09:23:03;;;;;;;4.67;1.80;;;;;;;;;;5031757;28;20816;-69
2021/05/07 09:25:30;;;;;;;2.50;1.60;;;;;;;;;;5032059;28;20452;-63
2021/05/07 09:28:05;;;;;;;3.30;1.60;;;;;;;;;;5032274;28;20479;-63
2021/05/07 09:30:32;;;;;;;2.13;1.80;;;;;;;;;;5030989;28;20963;-63
2021/05/07 09:32:59;;;;;;;2.90;1.90;;;;;;;;;;5032309;28;20542;-64
2021/05/07 09:35:26;;;;;;;3.40;2.17;;;;;;;;;;5031657;28;20481;-64
2021/05/07 09:37:57;;;;;;;2.17;1.90;;;;;;;;;;5032400;28;20460;-65
2021/05/07 09:40:24;;;;;;;2.47;2.17;;;;;;;;;;5032516;28;20452;-67
2021/05/07 09:42:51;;;;;;;2.13;1.83;;;;;;;;;;5032108;28;20476;-66
2021/05/07 09:45:22;;;;;;;2.47;2.00;;;;;;;;;;5030945;28;20456;-64
2021/05/07 09:47:49;;;;;;;3.03;2.00;;;;;;;;;;5031776;28;20445;-64
2021/05/07 09:50:16;;;;;;;2.23;1.87;;;;;;;;;;5032114;28;20952;-64
2021/05/07 09:52:44;;;;;;;2.80;2.23;;;;;;;;;;5031671;28;20508;-63
2021/05/07 09:55:12;;;;;;;3.30;2.53;;;;;;;;;;5031809;28;20507;-63
2021/05/07 09:57:40;;;;;;;2.80;2.37;;;;;;;;;;5031290;28;20810;-65
2021/05/07 10:00:07;;;;;;;2.70;2.50;;;;;;;;;;5031126;28;20640;-65
2021/05/07 10:02:34;;;;;;;3.37;2.87;;;;;;;;;;5031710;28;20478;-66
2021/05/07 10:05:01;;;;;;;3.20;2.83;;;;;;;;;;5031829;28;20449;-66
2021/05/07 10:07:28;;;;;;;4.17;2.73;;;;;;;;;;5017477;28;20824;-66
2021/05/07 10:10:01;;;;;;;3.40;3.10;;;;;;;;;;5012272;28;20516;-66
2021/05/07 10:12:29;;;;;;;4.17;3.77;;;;;;;;;;5011430;28;20554;-66
2021/05/07 10:14:56;;;;;;;4.20;3.20;;;;;;;;;;5012137;28;20485;-66
2021/05/07 10:17:23;;;;;;;3.00;2.80;;;;;;;;;;5012593;28;20454;-66
2021/05/07 10:19:50;;;;;;;3.50;3.20;;;;;;;;;;5011907;28;20495;-66
2021/05/07 10:22:18;;;;;;;3.10;2.90;;;;;;;;;;5011995;28;20485;-66
2021/05/07 10:24:44;;;;;;;2.70;2.50;;;;;;;;;;5011692;28;20933;-66
2021/05/07 10:27:15;;;;;;;2.70;2.50;;;;;;;;;;5011201;28;20795;-66
2021/05/07 10:29:52;;;;;;;4.50;2.20;;;;;;;;;;5011897;28;20452;-65
2021/05/07 10:32:31;;;;;;;2.50;2.30;;;;;;;;;;5031218;28;20483;-66
2021/05/07 10:34:58;;;;;;;2.80;2.20;;;;;;;;;;5032985;28;20479;-63
2021/05/07 10:37:36;;;;;;;2.80;2.57;;;;;;;;;;5035044;28;20560;-64
2021/05/07 10:40:02;;;;;;;2.57;2.37;;;;;;;;;;5035493;28;20444;-64
2021/05/07 10:42:29;;;;;;;2.83;2.53;;;;;;;;;;5035785;28;20476;-64
2021/05/07 10:44:56;;;;;;;4.47;2.97;;;;;;;;;;5034927;28;20457;-65
2021/05/07 10:47:31;;;;;;;3.47;3.17;;;;;;;;;;5035487;28;20502;-64
2021/05/07 10:49:58;;;;;;;2.60;2.40;;;;;;;;;;5035495;28;20506;-64
2021/05/07 10:52:25;;;;;;;4.53;2.90;;;;;;;;;;5035332;28;20468;-65
2021/05/07 10:55:03;;;;;;;2.73;2.30;;;;;;;;;;5035119;28;20476;-64
2021/05/07 10:57:30;;;;;;;2.23;1.97;;;;;;;;;;5035345;28;20524;-64
2021/05/07 10:59:58;;;;;;;2.70;1.70;;;;;;;;;;5033906;28;20457;-65
2021/05/07 11:02:25;;;;;;;2.63;1.83;;;;;;;;;;5034755;28;20862;-65
2021/05/07 11:04:52;;;;;;;2.70;1.80;;;;;;;;;;5035017;28;20449;-66
2021/05/07 11:07:25;;;;;;;1.87;1.57;;;;;;;;;;5034518;28;20939;-66
2021/05/07 11:09:59;;;;;;;2.67;1.30;;;;;;;;;;5034910;28;20452;-65
2021/05/07 11:12:26;;;;;;;2.57;1.33;;;;;;;;;;5034647;28;20926;-64
2021/05/07 11:14:52;;;;;;;2.30;1.53;;;;;;;;;;5033335;28;20507;-64
2021/05/07 11:17:20;;;;;;;1.33;1.20;;;;;;;;;;5034460;28;20862;-65
2021/05/07 11:19:47;;;;;;;2.73;1.80;;;;;;;;;;5034829;28;20540;-64
2021/05/07 11:22:13;;;;;;;1.97;1.43;;;;;;;;;;5034395;28;20534;-64
2021/05/07 11:24:41;;;;;;;2.13;1.50;;;;;;;;;;5034852;28;20503;-64
2021/05/07 11:27:21;;;;;;;1.90;1.60;;;;;;;;;;5034210;28;20499;-64
2021/05/07 11:29:48;;;;;;;2.90;1.67;;;;;;;;;;5023474;28;20446;-65
2021/05/07 11:32:16;;;;;;;2.80;1.80;;;;;;;;;;5022628;28;20478;-64
2021/05/07 11:34:49;;;;;;;2.37;1.60;;;;;;;;;;5034523;28;20484;-64
2021/05/07 11:37:16;;;;;;;3.30;1.83;;;;;;;;;;5034334;28;20449;-64
2021/05/07 11:39:43;;;;;;;3.17;2.00;;;;;;;;;;5033509;28;20463;-64
2021/05/07 11:42:10;;;;;;;4.07;2.03;;;;;;;;;;5034245;28;20514;-64
2021/05/07 11:44:47;;;;;;;2.40;2.20;;;;;;;;;;5034518;28;20770;-64
2021/05/07 11:47:14;;;;;;;4.00;2.07;;;;;;;;;;5032651;28;20845;-64
2021/05/07 11:49:45;;;;;;;1.90;1.80;;;;;;;;;;5034306;28;20453;-64
2021/05/07 11:52:12;;;;;;;1.73;1.50;;;;;;;;;;5034229;28;20476;-64
2021/05/07 11:54:41;;;;;;;3.40;1.70;;;;;;;;;;5029807;28;20482;-64
2021/05/07 11:57:07;;;;;;;2.17;1.80;;;;;;;;;;5014053;28;20504;-64
2021/05/07 11:59:34;;;;;;;2.43;1.80;;;;;;;;;;5014498;28;20479;-64
2021/05/07 12:02:03;;;;;;;2.30;1.97;;;;;;;;;;5014014;28;21018;-64
2021/05/07 12:04:30;;;;;;;1.97;1.20;;;;;;;;;;5014064;28;20971;-64
2021/05/07 12:06:56;;;;;;;3.47;1.80;;;;;;;;;;5014077;28;20460;-64
2021/05/07 12:09:24;;;;;;;2.50;1.37;;;;;;;;;;5013956;28;20934;-65
2021/05/07 12:11:57;;;;;;;2.93;1.80;;;;;;;;;;5030908;28;21002;-65
2021/05/07 12:14:23;;;;;;;3.00;1.60;;;;;;;;;;5033809;28;20452;-65
2021/05/07 12:16:58;;;;;;;4.93;1.60;;;;;;;;;;5033535;28;20522;-68
2021/05/07 12:19:25;;;;;;;1.60;1.50;;;;;;;;;;5033195;28;20801;-64
2021/05/07 12:21:52;;;;;;;2.80;1.90;;;;;;;;;;5032849;28;20473;-64
2021/05/07 12:24:27;;;;;;;3.07;1.80;;;;;;;;;;5033972;28;20444;-64
2021/05/07 12:26:53;;;;;;;2.10;1.53;;;;;;;;;;5033428;28;20441;-64
2021/05/07 12:29:20;;;;;;;2.27;2.07;;;;;;;;;;5033776;28;20449;-64
2021/05/07 12:31:47;;;;;;;3.10;1.83;;;;;;;;;;5033394;28;20522;-64
2021/05/07 12:34:14;;;;;;;2.53;2.00;;;;;;;;;;5033841;28;20452;-64
2021/05/07 12:36:41;;;;;;;2.30;2.10;;;;;;;;;;5032772;28;20484;-64
2021/05/07 12:39:09;;;;;;;2.67;2.00;;;;;;;;;;5033293;28;20459;-64
2021/05/07 12:41:37;;;;;;;3.50;2.33;;;;;;;;;;5033383;28;20472;-64
2021/05/07 12:44:03;;;;;;;3.40;2.20;;;;;;;;;;5033772;28;20445;-64
2021/05/07 12:46:30;;;;;;;3.30;2.60;;;;;;;;;;5038571;28;20436;-64
2021/05/07 12:48:59;;;;;;;4.13;2.03;;;;;;;;;;5047454;28;20449;-64
2021/05/07 12:51:26;;;;;;;3.80;2.13;;;;;;;;;;5040292;28;20473;-64
2021/05/07 12:53:53;;;;;;;3.30;2.27;;;;;;;;;;5014050;28;20493;-64
2021/05/07 12:56:21;;;;;;;3.73;2.33;;;;;;;;;;5013249;28;20860;-64
2021/05/07 12:58:48;;;;;;;2.10;1.90;;;;;;;;;;5013464;28;20446;-65
2021/05/07 13:01:15;;;;;;;2.67;2.47;;;;;;;;;;5013055;28;20494;-64
2021/05/07 13:03:42;;;;;;;2.60;2.40;;;;;;;;;;5013231;28;20949;-64
2021/05/07 13:06:08;;;;;;;2.80;2.40;;;;;;;;;;5014313;28;20452;-64
2021/05/07 13:08:35;;;;;;;3.80;2.00;;;;;;;;;;5032870;28;20556;-64
2021/05/07 13:11:02;;;;;;;3.50;2.50;;;;;;;;;;5032557;28;20453;-64
2021/05/07 13:13:28;;;;;;;2.80;2.30;;;;;;;;;;5025135;28;20450;-64
2021/05/07 13:15:56;;;;;;;2.77;2.10;;;;;;;;;;5012775;28;20856;-64
2021/05/07 13:18:22;;;;;;;3.70;2.13;;;;;;;;;;5013084;28;20450;-64
2021/05/07 13:20:49;;;;;;;3.20;2.13;;;;;;;;;;5012347;28;20953;-64
2021/05/07 13:23:15;;;;;;;2.93;2.03;;;;;;;;;;5012843;28;20470;-64
2021/05/07 13:25:42;;;;;;;2.20;2.00;;;;;;;;;;5012754;28;20808;-64
2021/05/07 13:28:09;;;;;;;4.47;2.43;;;;;;;;;;5013861;28;20453;-64
2021/05/07 13:30:35;;;;;;;3.67;2.20;;;;;;;;;;5012558;28;20446;-64
2021/05/07 13:33:03;;;;;;;4.60;2.13;;;;;;;;;;5012486;28;20476;-64
2021/05/07 13:35:30;;;;;;;3.37;2.33;;;;;;;;;;5012277;28;20492;-64
2021/05/07 13:37:56;;;;;;;3.13;2.20;;;;;;;;;;5012600;28;20512;-64
2021/05/07 13:40:23;;;;;;;4.80;2.50;;;;;;;;;;5012318;28;20944;-64
2021/05/07 13:42:54;;;;;;;2.63;2.43;;;;;;;;;;5012187;28;20465;-64
2021/05/07 13:45:21;;;;;;;3.10;2.50;;;;;;;;;;5012348;28;20434;-64
2021/05/07 13:47:48;;;;;;;2.90;2.40;;;;;;;;;;5022416;28;20448;-64
2021/05/07 13:50:17;;;;;;;3.00;2.40;;;;;;;;;;5031996;28;20844;-64
2021/05/07 13:52:43;;;;;;;4.00;2.20;;;;;;;;;;5031851;28;20472;-64
2021/05/07 13:55:11;;;;;;;2.30;2.10;;;;;;;;;;5031422;28;20991;-64
2021/05/07 13:57:37;;;;;;;3.90;2.07;;;;;;;;;;5031954;28;20871;-64
2021/05/07 14:00:04;;;;;;;2.60;2.00;;;;;;;;;;5032272;28;20482;-64
2021/05/07 14:02:31;;;;;;;3.00;2.20;;;;;;;;;;5031942;28;20473;-64
2021/05/07 14:04:59;;;;;;;3.73;2.37;;;;;;;;;;5032220;28;20441;-64
2021/05/07 14:07:27;;;;;;;3.53;2.10;;;;;;;;;;5025254;28;20838;-64
2021/05/07 14:09:53;;;;;;;1.63;1.53;;;;;;;;;;5011841;28;20827;-64
2021/05/07 14:12:20;;;;;;;4.37;2.10;;;;;;;;;;5012119;28;20481;-65
2021/05/07 14:14:46;;;;;;;2.20;1.70;;;;;;;;;;5012245;28;20446;-66
2021/05/07 14:17:13;;;;;;;2.90;1.83;;;;;;;;;;5011668;28;20453;-65
2021/05/07 14:19:40;;;;;;;2.03;1.80;;;;;;;;;;5012547;28;20456;-66
2021/05/07 14:22:07;;;;;;;2.50;1.80;;;;;;;;;;5012447;28;20466;-66
2021/05/07 14:24:35;;;;;;;2.30;1.60;;;;;;;;;;5011808;28;20460;-66
2021/05/07 14:27:02;;;;;;;1.60;1.50;;;;;;;;;;5011876;28;20990;-65
2021/05/07 14:29:28;;;;;;;1.93;1.57;;;;;;;;;;5018336;28;20445;-66
2021/05/07 14:31:55;;;;;;;1.80;1.70;;;;;;;;;;5031333;28;20487;-65
2021/05/07 14:34:22;;;;;;;1.40;1.30;;;;;;;;;;5031738;28;20441;-65
2021/05/07 14:36:49;;;;;;;2.33;1.70;;;;;;;;;;5031149;28;21041;-65
2021/05/07 14:39:16;;;;;;;2.63;1.60;;;;;;;;;;5031707;28;20452;-66
2021/05/07 14:41:43;;;;;;;2.47;1.77;;;;;;;;;;5031325;28;20575;-66
2021/05/07 14:44:10;;;;;;;1.63;1.53;;;;;;;;;;5031689;28;20448;-66